Time;durP1;ratioP1;P1;durP2;ratioP2;P2;SDS_P1;SDS_P2;PMS_P1;PMS_P2;Temp;Humidity;BMP_temperature;BMP_pressure;BME280_temperature;BME280_humidity;BME280_pressure;Samples;Min_cycle;Max_cycle;Signal;HPM_P1;HPM_P2
2022/03/17 00:00:10;;;;;;;14.38;11.50;;;;;;;5.80;100.00;100986.69;5050903;28;20060;-71
2022/03/17 00:02:37;;;;;;;15.88;12.73;;;;;;;5.41;100.00;100938.47;5050855;28;20053;-71
2022/03/17 00:05:04;;;;;;;16.25;13.20;;;;;;;5.48;100.00;100958.69;5033011;28;20036;-70
2022/03/17 00:07:30;;;;;;;15.77;12.45;;;;;;;5.74;100.00;100994.19;5050911;28;20115;-70
2022/03/17 00:09:56;;;;;;;14.73;12.70;;;;;;;5.60;100.00;100990.72;5051104;28;20024;-69
2022/03/17 00:12:22;;;;;;;15.73;13.45;;;;;;;5.90;100.00;101001.09;5050829;28;20495;-70
2022/03/17 00:14:47;;;;;;;16.60;13.60;;;;;;;5.64;100.00;100992.44;5050898;28;20060;-70
2022/03/17 00:17:13;;;;;;;16.90;13.00;;;;;;;5.77;100.00;101006.81;5050786;28;20107;-70
2022/03/17 00:19:39;;;;;;;17.73;13.68;;;;;;;5.81;100.00;100984.16;5050879;28;20482;-70
2022/03/17 00:22:09;;;;;;;18.13;14.38;;;;;;;5.55;100.00;100975.53;5050665;28;20025;-71
2022/03/17 00:24:37;;;;;;;16.77;13.60;;;;;;;5.59;100.00;100994.91;5050962;28;20033;-71
2022/03/17 00:27:06;;;;;;;15.02;12.55;;;;;;;5.60;100.00;100968.88;5050390;28;20057;-69
2022/03/17 00:29:33;;;;;;;16.48;14.02;;;;;;;5.48;100.00;100981.38;5050022;28;20071;-71
2022/03/17 00:31:59;;;;;;;17.30;13.30;;;;;;;5.23;100.00;100947.53;5050375;28;20506;-71
2022/03/17 00:34:24;;;;;;;17.88;13.48;;;;;;;5.67;100.00;100995.81;5050553;28;20025;-65
2022/03/17 00:36:50;;;;;;;16.27;13.68;;;;;;;5.77;100.00;101014.38;5050857;28;20079;-70
2022/03/17 00:39:16;;;;;;;18.00;14.50;;;;;;;5.76;100.00;100998.44;5050592;28;20035;-70
2022/03/17 00:41:42;;;;;;;18.40;14.80;;;;;;;5.68;100.00;100995.00;5050223;28;20099;-70
2022/03/17 00:44:08;;;;;;;19.98;15.98;;;;;;;5.67;100.00;100984.88;5050460;28;20040;-69
2022/03/17 00:46:33;;;;;;;20.85;16.42;;;;;;;5.33;100.00;100945.94;5050241;28;20041;-70
2022/03/17 00:48:59;;;;;;;23.33;18.05;;;;;;;5.72;100.00;101011.00;5050313;28;20071;-70
2022/03/17 00:51:24;;;;;;;24.80;19.35;;;;;;;5.84;100.00;101013.66;5050596;28;20078;-70
2022/03/17 00:53:50;;;;;;;26.90;21.27;;;;;;;5.54;100.00;100978.91;5050375;28;20114;-70
2022/03/17 00:56:15;;;;;;;27.90;21.40;;;;;;;5.31;100.00;100965.22;5049083;28;20044;-70
2022/03/17 00:58:45;;;;;;;31.38;22.05;;;;;;;5.56;100.00;101002.47;5050352;28;20457;-70
2022/03/17 01:03:43;;;;;;;37.50;27.10;;;;;;;5.70;100.00;101002.56;4103911;28;10000700;-70
2022/03/17 01:06:08;;;;;;;39.28;28.92;;;;;;;5.35;100.00;100961.09;5010817;28;20100;-71
2022/03/17 01:08:34;;;;;;;42.97;30.80;;;;;;;5.42;100.00;100977.94;5011023;28;20034;-71
2022/03/17 01:11:00;;;;;;;34.00;25.42;;;;;;;5.48;100.00;100975.47;4993289;28;20037;-69
2022/03/17 01:13:25;;;;;;;30.48;21.95;;;;;;;5.78;100.00;101006.00;5010963;28;20038;-69
2022/03/17 01:15:51;;;;;;;23.77;17.92;;;;;;;5.52;100.00;100969.63;5011141;28;20030;-68
2022/03/17 01:18:16;;;;;;;23.15;18.70;;;;;;;5.70;100.00;101011.00;5011155;28;20176;-69
2022/03/17 01:20:42;;;;;;;27.20;20.20;;;;;;;5.60;100.00;100968.88;5010793;28;20116;-69
2022/03/17 01:23:08;;;;;;;21.83;17.52;;;;;;;5.68;100.00;100987.44;5010899;28;20026;-69
2022/03/17 01:25:33;;;;;;;21.75;17.38;;;;;;;5.80;100.00;100987.50;5010156;28;20035;-69
2022/03/17 01:27:59;;;;;;;22.98;18.35;;;;;;;5.69;100.00;100994.16;5010915;28;20026;-71
2022/03/17 01:30:26;;;;;;;23.55;17.92;;;;;;;5.66;100.00;101004.22;5010900;28;20117;-71
2022/03/17 01:32:51;;;;;;;22.50;18.60;;;;;;;5.28;100.00;100993.81;5010529;28;20102;-66
2022/03/17 01:35:17;;;;;;;25.05;18.83;;;;;;;5.36;100.00;100990.50;5010964;28;20030;-71
2022/03/17 01:37:42;;;;;;;27.30;21.40;;;;;;;5.51;100.00;100998.19;5025698;28;20033;-71
2022/03/17 01:40:09;;;;;;;27.20;21.80;;;;;;;5.36;100.00;100996.38;5011016;28;20022;-70
2022/03/17 01:42:35;;;;;;;28.02;22.17;;;;;;;5.34;100.00;100992.16;5014406;28;20054;-71
2022/03/17 01:45:01;;;;;;;27.17;22.38;;;;;;;5.09;100.00;100939.00;5014365;28;20120;-70
2022/03/17 01:47:29;;;;;;;27.42;22.25;;;;;;;5.24;100.00;100992.09;5013832;28;20118;-69
2022/03/17 01:49:57;;;;;;;26.75;21.45;;;;;;;5.30;100.00;100966.09;5014231;28;20116;-70
2022/03/17 01:52:23;;;;;;;29.58;23.08;;;;;;;5.32;100.00;101013.97;5014119;28;20034;-71
2022/03/17 01:54:49;;;;;;;28.25;22.40;;;;;;;5.15;100.00;100997.00;5013595;28;20034;-71
2022/03/17 01:57:15;;;;;;;35.63;29.10;;;;;;;5.07;100.00;100995.25;5013931;28;20463;-71
2022/03/17 01:59:41;;;;;;;35.47;29.90;;;;;;;4.98;100.00;101003.56;5014096;28;20058;-70
2022/03/17 02:02:10;;;;;;;33.05;25.80;;;;;;;4.84;100.00;101005.06;5018397;28;20050;-70
2022/03/17 02:04:35;;;;;;;34.35;27.05;;;;;;;4.96;100.00;101034.59;5033560;28;20044;-71
2022/03/17 02:07:05;;;;;;;31.48;24.42;;;;;;;5.23;100.00;101029.84;5033194;28;20033;-69
2022/03/17 02:09:35;;;;;;;31.60;24.25;;;;;;;5.21;100.00;101022.28;5033433;28;20120;-71
2022/03/17 02:14:48;;;;;;;27.92;20.65;;;;;;;5.22;100.00;101034.06;5033561;28;20103;-71
2022/03/17 02:17:14;;;;;;;27.92;21.33;;;;;;;4.67;100.00;101021.66;5033210;28;20026;-71
2022/03/17 02:19:40;;;;;;;27.80;20.92;;;;;;;5.15;100.00;101039.03;5033313;28;20029;-71
2022/03/17 02:22:06;;;;;;;34.10;23.90;;;;;;;5.13;100.00;101031.44;5033263;28;20075;-71
2022/03/17 02:27:16;;;;;;;32.17;24.00;;;;;;;4.54;100.00;100992.09;5033030;28;20044;-70
2022/03/17 02:29:42;;;;;;;32.47;23.23;;;;;;;5.05;100.00;101044.78;5032908;28;20029;-70
2022/03/17 02:32:09;;;;;;;31.35;23.48;;;;;;;4.63;100.00;100976.28;5032851;28;20059;-70
2022/03/17 02:34:35;;;;;;;31.90;23.77;;;;;;;4.98;100.00;101063.16;5032889;28;20363;-71
2022/03/17 02:37:01;;;;;;;37.45;26.65;;;;;;;4.78;100.00;101040.25;5032788;28;20175;-70
2022/03/17 02:39:26;;;;;;;37.22;26.98;;;;;;;4.86;100.00;101041.19;5033096;28;20033;-65
2022/03/17 02:41:51;;;;;;;38.72;28.58;;;;;;;4.63;100.00;101087.91;5032929;28;20040;-70
2022/03/17 02:44:17;;;;;;;38.72;27.77;;;;;;;4.56;100.00;101060.09;5032978;28;20030;-71
2022/03/17 02:46:42;;;;;;;36.47;27.15;;;;;;;4.79;100.00;101078.91;5032492;28;20072;-69
2022/03/17 02:49:08;;;;;;;37.53;26.73;;;;;;;4.88;100.00;101081.53;5032745;28;20021;-71
2022/03/17 02:51:33;;;;;;;36.85;26.75;;;;;;;4.72;100.00;101087.19;5031800;28;20033;-67
2022/03/17 02:53:58;;;;;;;37.38;28.13;;;;;;;4.56;100.00;101052.53;5032791;28;20061;-70
2022/03/17 02:56:24;;;;;;;39.10;27.17;;;;;;;4.76;100.00;101096.47;5033025;28;20431;-70
2022/03/17 02:58:51;;;;;;;36.95;26.80;;;;;;;4.65;100.00;101072.81;5032425;28;20037;-71
2022/03/17 03:01:16;;;;;;;37.55;27.25;;;;;;;4.74;100.00;101118.28;5032394;28;20034;-71
2022/03/17 03:03:42;;;;;;;35.60;26.85;;;;;;;4.75;100.00;101122.50;5032541;28;20060;-70
2022/03/17 03:06:07;;;;;;;42.70;29.92;;;;;;;4.38;100.00;101080.81;5032089;28;20037;-71
2022/03/17 03:08:34;;;;;;;42.78;30.50;;;;;;;4.54;100.00;101117.13;5032367;28;20029;-71
2022/03/17 03:10:59;;;;;;;45.40;32.92;;;;;;;4.26;100.00;101118.38;5032434;28;20084;-69
2022/03/17 03:13:25;;;;;;;49.53;34.92;;;;;;;4.64;100.00;101121.47;5032549;28;20029;-71
2022/03/17 03:15:51;;;;;;;49.00;34.53;;;;;;;4.27;100.00;101062.22;5032127;28;20029;-71
2022/03/17 03:18:17;;;;;;;53.17;36.53;;;;;;;4.19;100.00;101064.63;5031728;28;20044;-70
2022/03/17 03:20:43;;;;;;;54.45;38.67;;;;;;;4.60;100.00;101132.31;5032000;28;20061;-69
2022/03/17 03:23:09;;;;;;;54.25;39.88;;;;;;;4.56;100.00;101126.41;5032038;28;20111;-70
2022/03/17 03:25:34;;;;;;;56.50;39.55;;;;;;;4.47;100.00;101103.63;5031662;28;20060;-70
2022/03/17 03:28:10;;;;;;;56.15;39.55;;;;;;;4.37;100.00;101106.84;5032087;28;20025;-64
2022/03/17 03:30:36;;;;;;;63.40;43.03;;;;;;;4.59;100.00;101120.56;5031367;28;20040;-70
2022/03/17 03:33:05;;;;;;;62.20;41.28;;;;;;;4.35;100.00;101096.75;5031703;28;20033;-70
2022/03/17 03:38:14;;;;;;;65.45;44.70;;;;;;;4.39;100.00;101092.59;5031415;28;20032;-70
2022/03/17 03:40:40;;;;;;;66.43;44.75;;;;;;;4.52;100.00;101119.63;5031618;28;20029;-70
2022/03/17 03:43:05;;;;;;;66.68;45.08;;;;;;;4.27;100.00;101097.44;5031372;28;20036;-70
2022/03/17 03:45:31;;;;;;;69.13;47.35;;;;;;;4.54;100.00;101145.69;5031272;28;20033;-65
2022/03/17 03:47:56;;;;;;;70.70;47.03;;;;;;;4.98;100.00;101157.25;5031664;28;20113;-71
2022/03/17 03:50:22;;;;;;;74.18;46.22;;;;;;;4.86;100.00;101147.00;5030575;28;20033;-70
2022/03/17 03:52:47;;;;;;;67.53;46.33;;;;;;;4.65;100.00;101135.78;5031424;28;20442;-71
2022/03/17 03:55:13;;;;;;;75.25;48.63;;;;;;;4.91;100.00;101165.53;5031778;28;20033;-71
2022/03/17 03:57:38;;;;;;;70.18;48.22;;;;;;;4.72;100.00;101145.09;5031612;28;20395;-71
2022/03/17 04:02:51;;;;;;;78.88;51.15;;;;;;;4.68;100.00;101143.38;5020603;28;20067;-70
2022/03/17 04:05:18;;;;;;;70.25;48.28;;;;;;;4.75;100.00;101161.13;4993553;28;20033;-70
2022/03/17 04:07:44;;;;;;;75.93;49.38;;;;;;;4.85;100.00;101173.00;5011339;28;20068;-71
2022/03/17 04:10:09;;;;;;;72.28;48.25;;;;;;;4.76;100.00;101139.28;5010419;28;20109;-70
2022/03/17 04:12:34;;;;;;;74.05;48.00;;;;;;;4.73;100.00;101162.78;5010850;28;20033;-70
2022/03/17 04:15:00;;;;;;;72.68;48.78;;;;;;;4.85;100.00;101134.41;5011540;28;20117;-70
2022/03/17 04:17:25;;;;;;;72.25;49.03;;;;;;;4.64;100.00;101152.56;5011304;28;20026;-69
2022/03/17 04:19:51;;;;;;;73.55;47.08;;;;;;;4.48;100.00;101148.09;5011228;28;20029;-69
2022/03/17 04:22:16;;;;;;;73.45;46.78;;;;;;;4.76;100.00;101177.06;5011334;28;20488;-71
2022/03/17 04:24:42;;;;;;;66.20;44.80;;;;;;;4.66;100.00;101171.03;5011190;28;20033;-71
2022/03/17 04:27:07;;;;;;;69.20;44.78;;;;;;;4.49;100.00;101152.31;5010799;28;20033;-70
2022/03/17 04:29:33;;;;;;;66.68;44.88;;;;;;;4.54;100.00;101164.97;5011304;28;20033;-70
2022/03/17 04:31:58;;;;;;;63.35;42.25;;;;;;;4.68;100.00;101179.47;5011328;28;20036;-71
2022/03/17 04:34:24;;;;;;;61.22;40.40;;;;;;;4.71;100.00;101194.66;5010901;28;20656;-70
2022/03/17 04:36:49;;;;;;;61.35;39.60;;;;;;;4.75;100.00;101193.00;5011383;28;20037;-70
2022/03/17 04:39:15;;;;;;;58.38;39.30;;;;;;;4.84;100.00;101170.47;5010928;28;20026;-71
2022/03/17 04:41:40;;;;;;;58.42;38.35;;;;;;;4.81;100.00;101203.19;4991744;28;20076;-71
2022/03/17 04:44:06;;;;;;;57.25;39.08;;;;;;;4.85;100.00;101189.81;5011253;28;20032;-70
2022/03/17 04:46:32;;;;;;;56.60;37.15;;;;;;;4.86;100.00;101184.78;5011156;28;20096;-71
2022/03/17 04:48:58;;;;;;;58.63;38.17;;;;;;;5.07;100.00;101227.91;5010620;28;20116;-70
2022/03/17 04:51:24;;;;;;;57.35;37.03;;;;;;;4.81;100.00;101203.19;5010492;28;20036;-70
2022/03/17 04:53:49;;;;;;;55.35;36.53;;;;;;;4.96;100.00;101236.16;5010621;28;20518;-70
2022/03/17 04:56:17;;;;;;;57.17;38.92;;;;;;;5.02;100.00;101248.84;5010645;28;20189;-69
2022/03/17 04:58:44;;;;;;;55.38;37.42;;;;;;;4.66;100.00;101221.41;4998615;28;20030;-70
2022/03/17 05:01:10;;;;;;;53.85;36.15;;;;;;;4.73;100.00;101225.75;4991165;28;20093;-70
2022/03/17 05:03:37;;;;;;;58.03;36.75;;;;;;;4.91;100.00;101253.69;5003244;28;20066;-69
2022/03/17 05:06:03;;;;;;;55.65;37.10;;;;;;;4.71;100.00;101224.00;4991516;28;20125;-71
2022/03/17 05:08:29;;;;;;;57.40;36.33;;;;;;;4.94;100.00;101265.50;5006196;28;20031;-70
2022/03/17 05:10:55;;;;;;;55.00;36.42;;;;;;;5.05;100.00;101267.38;4991165;28;20030;-71
2022/03/17 05:13:22;;;;;;;52.40;35.25;;;;;;;4.85;100.00;101243.53;4989890;28;20038;-70
2022/03/17 05:15:49;;;;;;;54.92;36.78;;;;;;;5.05;100.00;101253.94;4993168;28;20112;-71
2022/03/17 05:18:14;;;;;;;51.10;34.85;;;;;;;5.18;100.00;101263.38;4994783;28;20042;-70
2022/03/17 05:20:41;;;;;;;54.35;35.58;;;;;;;4.92;100.00;101250.38;4995107;28;20037;-69
2022/03/17 05:23:08;;;;;;;52.00;34.85;;;;;;;5.08;100.00;101266.56;4994365;28;20033;-70
2022/03/17 05:25:34;;;;;;;56.60;34.92;;;;;;;5.02;100.00;101247.19;4994169;28;20093;-68
2022/03/17 05:28:00;;;;;;;51.13;34.45;;;;;;;4.91;100.00;101230.22;4994640;28;20030;-68
2022/03/17 05:30:26;;;;;;;49.58;33.90;;;;;;;5.04;100.00;101267.34;4994752;28;20058;-70
2022/03/17 05:32:52;;;;;;;50.80;34.40;;;;;;;5.12;100.00;101260.75;4994392;28;20478;-71
2022/03/17 05:35:17;;;;;;;54.00;34.88;;;;;;;6.59;100.00;101291.16;4995703;28;20030;-70
2022/03/17 05:37:43;;;;;;;50.67;33.65;;;;;;;5.52;100.00;101310.06;5013071;28;20049;-71
2022/03/17 05:40:15;;;;;;;54.70;34.78;;;;;;;5.63;100.00;101306.88;5014171;28;20037;-69
2022/03/17 05:42:42;;;;;;;50.30;34.08;;;;;;;5.48;100.00;101278.94;5014138;28;20032;-71
2022/03/17 05:45:09;;;;;;;49.08;33.45;;;;;;;5.50;100.00;101294.94;5014101;28;20506;-69
2022/03/17 05:47:42;;;;;;;50.90;33.67;;;;;;;5.45;100.00;101273.81;5013738;28;20133;-70
2022/03/17 05:50:10;;;;;;;49.85;32.22;;;;;;;5.39;100.00;101253.56;5013148;28;20037;-69
2022/03/17 05:52:40;;;;;;;49.92;33.10;;;;;;;5.68;100.00;101322.91;5012489;28;20108;-69
2022/03/17 05:55:07;;;;;;;46.53;30.80;;;;;;;5.73;100.00;101321.28;5011580;28;20423;-68
2022/03/17 05:57:52;;;;;;;45.83;32.17;;;;;;;5.90;100.00;101319.84;5012656;28;20100;-68
2022/03/17 06:00:20;;;;;;;48.47;31.63;;;;;;;6.13;100.00;101330.25;5012222;28;20030;-68
2022/03/17 06:02:46;;;;;;;44.50;31.25;;;;;;;6.22;100.00;101296.69;5021401;28;20132;-69
2022/03/17 06:05:13;;;;;;;45.35;31.02;;;;;;;6.35;100.00;101332.19;5031722;28;20022;-69
2022/03/17 06:07:45;;;;;;;44.95;32.15;;;;;;;5.93;100.00;101294.69;5032173;28;20095;-69
2022/03/17 06:10:13;;;;;;;44.95;31.77;;;;;;;6.32;100.00;101337.19;5032227;28;20087;-69
2022/03/17 06:12:39;;;;;;;43.83;31.30;;;;;;;6.38;100.00;101327.16;5031058;28;20025;-68
2022/03/17 06:15:07;;;;;;;43.13;31.33;;;;;;;6.36;100.00;101325.47;5024250;28;20109;-70
2022/03/17 06:17:36;;;;;;;45.95;31.80;;;;;;;6.51;100.00;101341.63;5013089;28;20034;-69
2022/03/17 06:20:01;;;;;;;46.15;33.45;;;;;;;6.60;100.00;101311.38;5013351;28;20034;-70
2022/03/17 06:22:26;;;;;;;45.72;32.20;;;;;;;6.58;100.00;101337.47;5013175;28;20033;-70
2022/03/17 06:24:52;;;;;;;43.35;29.75;;;;;;;6.62;100.00;101307.19;5013082;28;20032;-70
2022/03/17 06:27:17;;;;;;;41.47;30.58;;;;;;;7.02;100.00;101348.84;5011811;28;20041;-69
2022/03/17 06:29:43;;;;;;;43.15;31.17;;;;;;;6.94;100.00;101356.38;5012958;28;20029;-70
2022/03/17 06:32:08;;;;;;;43.25;29.70;;;;;;;6.82;100.00;101325.91;5012819;28;20128;-70
2022/03/17 06:34:34;;;;;;;44.40;31.67;;;;;;;7.10;100.00;101351.44;5012854;28;20045;-70
2022/03/17 06:36:59;;;;;;;42.63;32.17;;;;;;;6.85;100.00;101327.63;5013028;28;20022;-70
2022/03/17 06:39:25;;;;;;;43.38;32.67;;;;;;;7.24;100.00;101362.50;5012552;28;20037;-69
2022/03/17 06:41:50;;;;;;;45.15;32.97;;;;;;;7.52;100.00;101362.72;5012893;28;20034;-70
2022/03/17 06:44:15;;;;;;;43.50;31.80;;;;;;;6.94;100.00;101318.44;5012420;28;20498;-70
2022/03/17 06:46:41;;;;;;;41.42;31.45;;;;;;;7.03;100.00;101344.63;5012451;28;20038;-68
2022/03/17 06:49:06;;;;;;;41.47;30.73;;;;;;;7.19;100.00;101380.16;5012818;28;20030;-69
2022/03/17 06:51:32;;;;;;;36.60;28.23;;;;;;;6.79;100.00;101342.75;5012570;28;20037;-70
2022/03/17 06:53:57;;;;;;;37.58;27.85;;;;;;;7.16;100.00;101371.72;5012412;28;20446;-69
2022/03/17 06:56:22;;;;;;;39.47;28.88;;;;;;;6.98;100.00;101358.09;5012433;28;20026;-70
2022/03/17 06:58:48;;;;;;;35.47;27.35;;;;;;;7.01;100.00;101357.28;5012241;28;20061;-69
2022/03/17 07:01:13;;;;;;;34.60;25.55;;;;;;;7.22;100.00;101395.38;5012147;28;20026;-69
2022/03/17 07:03:39;;;;;;;33.72;26.08;;;;;;;7.15;100.00;101386.03;4995478;28;20129;-70
2022/03/17 07:06:04;;;;;;;39.53;27.70;;;;;;;7.46;100.00;101399.78;4992621;28;20125;-70
2022/03/17 07:08:29;;;;;;;35.65;26.05;;;;;;;7.30;100.00;101370.13;4992625;28;20022;-69
2022/03/17 07:10:55;;;;;;;35.83;27.30;;;;;;;7.45;100.00;101375.28;4992665;28;20059;-70
2022/03/17 07:13:20;;;;;;;33.10;24.90;;;;;;;7.39;100.00;101403.13;4992615;28;20031;-70
2022/03/17 07:15:46;;;;;;;28.80;23.00;;;;;;;7.14;100.00;101393.59;4992100;28;20404;-70
2022/03/17 07:18:11;;;;;;;29.35;23.40;;;;;;;7.16;100.00;101417.22;4992743;28;20030;-70
2022/03/17 07:20:36;;;;;;;26.92;21.30;;;;;;;7.01;100.00;101403.59;4992909;28;20145;-71
2022/03/17 07:23:02;;;;;;;26.23;20.85;;;;;;;7.01;100.00;101396.00;4992458;28;20030;-70
2022/03/17 07:25:27;;;;;;;26.90;21.10;;;;;;;6.87;100.00;101396.75;4992375;28;20038;-70
2022/03/17 07:27:53;;;;;;;25.85;19.58;;;;;;;6.86;100.00;101390.81;4992299;28;20034;-70
2022/03/17 07:30:22;;;;;;;24.90;19.55;;;;;;;6.90;100.00;101402.66;4992084;28;20035;-70
2022/03/17 07:32:59;;;;;;;23.60;19.35;;;;;;;6.79;100.00;101380.66;4992448;28;20034;-70
2022/03/17 07:35:29;;;;;;;43.83;30.08;;;;;;;6.91;100.00;101437.19;4992438;28;20030;-71
2022/03/17 07:37:56;;;;;;;41.75;31.33;;;;;;;7.03;100.00;101444.09;4990512;28;20403;-70
2022/03/17 07:40:22;;;;;;;43.40;32.50;;;;;;;6.87;100.00;101417.78;4992207;28;20030;-71
2022/03/17 07:42:47;;;;;;;46.75;33.65;;;;;;;6.92;100.00;101411.13;4991808;28;20023;-68
2022/03/17 07:45:12;;;;;;;34.60;26.70;;;;;;;7.07;100.00;101424.72;4990683;28;20559;-70
2022/03/17 07:47:46;;;;;;;30.38;24.70;;;;;;;7.24;100.00;101428.25;4991989;28;20041;-70
2022/03/17 07:50:11;;;;;;;34.10;25.60;;;;;;;7.13;100.00;101381.81;4992043;28;20498;-70
2022/03/17 07:52:38;;;;;;;27.95;20.75;;;;;;;7.14;100.00;101441.66;4991839;28;20113;-69
2022/03/17 07:55:04;;;;;;;31.42;24.35;;;;;;;7.33;100.00;101408.94;4991819;28;20129;-69
2022/03/17 07:57:29;;;;;;;29.27;23.00;;;;;;;7.40;100.00;101422.50;4991449;28;20027;-69
2022/03/17 07:59:55;;;;;;;28.10;21.95;;;;;;;7.35;100.00;101427.50;4991472;28;20419;-69
2022/03/17 08:02:20;;;;;;;43.10;28.08;;;;;;;7.44;100.00;101421.69;4998321;28;20048;-68
2022/03/17 08:04:48;;;;;;;33.00;25.30;;;;;;;7.22;100.00;101457.75;5009943;28;20477;-70
2022/03/17 08:07:14;;;;;;;40.25;26.52;;;;;;;7.39;100.00;101444.41;5011195;28;20112;-68
2022/03/17 08:09:39;;;;;;;30.65;24.10;;;;;;;7.39;100.00;101448.66;5011265;28;20487;-70
2022/03/17 08:12:06;;;;;;;28.65;23.75;;;;;;;6.98;100.00;101408.66;5010901;28;20041;-69
2022/03/17 08:14:31;;;;;;;25.52;20.23;;;;;;;7.13;100.00;101429.84;5011289;28;20029;-70
2022/03/17 08:16:56;;;;;;;35.13;27.13;;;;;;;7.27;100.00;101443.47;5011213;28;20026;-69
2022/03/17 08:19:22;;;;;;;32.35;26.33;;;;;;;7.64;100.00;101466.56;5009712;28;20029;-70
2022/03/17 08:21:47;;;;;;;34.72;27.73;;;;;;;7.76;100.00;101446.38;5010992;28;20044;-69
2022/03/17 08:24:13;;;;;;;28.90;23.05;;;;;;;7.32;100.00;101451.94;5011114;28;20613;-69
2022/03/17 08:26:39;;;;;;;38.47;27.05;;;;;;;7.50;100.00;101478.25;5010461;28;20032;-70
2022/03/17 08:29:06;;;;;;;63.25;39.05;;;;;;;7.62;100.00;101437.00;5010958;28;20080;-70
2022/03/17 08:31:32;;;;;;;53.90;34.30;;;;;;;7.80;100.00;101457.41;5011266;28;20029;-68
2022/03/17 08:33:58;;;;;;;26.55;20.58;;;;;;;7.65;100.00;101448.00;5010799;28;20026;-70
2022/03/17 08:36:24;;;;;;;25.52;20.50;;;;;;;7.98;100.00;101482.00;5010935;28;20053;-69
2022/03/17 08:38:53;;;;;;;26.70;21.70;;;;;;;8.31;100.00;101492.38;5010774;28;20029;-69
2022/03/17 08:41:19;;;;;;;25.15;19.65;;;;;;;8.29;100.00;101489.84;5010627;28;20026;-70
2022/03/17 08:43:46;;;;;;;26.05;19.33;;;;;;;8.19;100.00;101462.72;5010737;28;20422;-70
2022/03/17 08:51:39;;;;;;;17.75;15.30;;;;;;;8.05;100.00;101468.53;5013949;28;20410;-69
2022/03/17 08:54:05;;;;;;;23.17;17.35;;;;;;;8.12;100.00;101488.00;5013417;28;20029;-70
2022/03/17 08:56:32;;;;;;;20.75;16.90;;;;;;;8.17;100.00;101466.06;5014759;28;20129;-70
2022/03/17 08:58:58;;;;;;;22.83;17.50;;;;;;;7.84;100.00;101476.84;5015078;28;20022;-69
2022/03/17 09:01:24;;;;;;;26.55;19.20;;;;;;;8.01;100.00;101505.66;5014666;28;20042;-69
2022/03/17 09:03:49;;;;;;;18.45;15.52;;;;;;;7.88;100.00;101511.47;5014412;28;20081;-69
2022/03/17 09:06:14;;;;;;;19.98;14.57;;;;;;;7.60;100.00;101485.09;5013017;28;20479;-69
2022/03/17 09:08:41;;;;;;;32.28;20.27;;;;;;;7.60;100.00;101479.19;5014786;28;20034;-69
2022/03/17 09:11:07;;;;;;;29.40;13.63;;;;;;;7.26;100.00;101512.56;5014303;28;20042;-70
2022/03/17 09:13:32;;;;;;;33.20;17.23;;;;;;;6.85;100.00;101466.66;5014544;28;20165;-69
2022/03/17 09:15:58;;;;;;;44.97;25.92;;;;;;;6.89;100.00;101529.03;5014156;28;20038;-70
2022/03/17 09:18:23;;;;;;;19.92;13.30;;;;;;;6.86;100.00;101539.09;5014167;28;20033;-66
2022/03/17 09:20:49;;;;;;;50.92;30.50;;;;;;;6.88;100.00;101535.78;5014237;28;20030;-69
2022/03/17 09:23:16;;;;;;;59.70;37.25;;;;;;;7.01;100.00;101532.53;5014687;28;20038;-69
2022/03/17 09:25:42;;;;;;;28.60;19.60;;;;;;;6.72;100.00;101511.13;5014330;28;20434;-69
2022/03/17 09:28:07;;;;;;;57.53;35.78;;;;;;;6.54;100.00;101532.78;5014392;28;20418;-69
2022/03/17 09:30:34;;;;;;;55.15;37.00;;;;;;;6.45;100.00;101538.56;5014306;28;20036;-70
2022/03/17 09:33:01;;;;;;;21.35;16.33;;;;;;;6.39;100.00;101528.38;5014108;28;20117;-69
2022/03/17 09:35:27;;;;;;;7.70;5.35;;;;;;;6.23;100.00;101539.09;5014441;28;20037;-69
2022/03/17 09:37:53;;;;;;;19.92;15.95;;;;;;;6.22;100.00;101534.84;5014328;28;20034;-70
2022/03/17 09:40:18;;;;;;;33.30;19.70;;;;;;;5.96;100.00;101495.78;5014071;28;20029;-68
2022/03/17 09:42:44;;;;;;;34.45;24.40;;;;;;;6.21;100.00;101552.50;5013986;28;20033;-68
2022/03/17 09:45:11;;;;;;;7.22;5.72;;;;;;;6.13;100.00;101543.16;5013920;28;20033;-67
2022/03/17 09:47:42;;;;;;;7.30;6.43;;;;;;;5.99;100.00;101521.03;5013754;28;20057;-69
2022/03/17 09:50:10;;;;;;;9.60;7.45;;;;;;;6.16;100.00;101554.94;5013584;28;20050;-69
2022/03/17 09:52:37;;;;;;;7.70;5.80;;;;;;;5.96;100.00;101531.94;5013565;28;20037;-68
2022/03/17 09:55:04;;;;;;;8.23;6.00;;;;;;;6.13;100.00;101552.41;5013880;28;20026;-68
2022/03/17 09:57:31;;;;;;;8.93;5.55;;;;;;;6.19;100.00;101557.53;5028905;28;20041;-70
2022/03/17 09:59:58;;;;;;;8.20;6.78;;;;;;;6.05;100.00;101537.13;5013478;28;20120;-68
2022/03/17 10:02:24;;;;;;;18.83;15.35;;;;;;;6.09;100.00;101538.03;5006398;28;20052;-68
2022/03/17 10:04:50;;;;;;;29.85;19.98;;;;;;;6.06;100.00;101545.56;4993989;28;20082;-69
2022/03/17 10:07:18;;;;;;;17.20;11.80;;;;;;;6.15;100.00;101570.94;4993986;28;20073;-69
2022/03/17 10:09:46;;;;;;;15.82;11.07;;;;;;;6.16;100.00;101569.28;4993923;28;20038;-69
2022/03/17 10:12:13;;;;;;;6.57;5.03;;;;;;;6.26;100.00;101578.69;4993473;28;20492;-69
2022/03/17 10:14:42;;;;;;;11.65;7.10;;;;;;;5.97;100.00;101518.50;4993542;28;20480;-69
2022/03/17 10:17:29;;;;;;;7.82;4.10;;;;;;;6.27;100.00;101580.38;4993405;28;20397;-69
2022/03/17 10:20:13;;;;;;;5.95;4.20;;;;;;;6.26;100.00;101582.03;4986116;28;20042;-69
2022/03/17 10:22:44;;;;;;;5.30;3.60;;;;;;;5.98;100.00;101565.63;4993796;28;20034;-69
2022/03/17 10:25:21;;;;;;;13.10;9.20;;;;;;;6.20;100.00;101581.94;4993747;28;20031;-69
2022/03/17 10:27:51;;;;;;;9.55;7.55;;;;;;;6.30;100.00;101580.44;4993370;28;20112;-69
2022/03/17 10:30:33;;;;;;;8.20;6.22;;;;;;;6.22;100.00;101600.50;4993227;28;20030;-69
2022/03/17 10:33:09;;;;;;;4.80;3.30;;;;;;;6.10;100.00;101595.28;4993419;28;20027;-69
2022/03/17 10:35:36;;;;;;;6.78;3.90;;;;;;;5.99;100.00;101538.72;4993434;28;20030;-70
2022/03/17 10:38:11;;;;;;;3.53;2.60;;;;;;;6.34;100.00;101589.75;4993108;28;20026;-69
2022/03/17 10:40:37;;;;;;;2.65;2.33;;;;;;;6.24;100.00;101568.53;4993214;28;20055;-69
2022/03/17 10:43:23;;;;;;;2.35;1.95;;;;;;;6.17;100.00;101554.16;4993293;28;20509;-70
2022/03/17 10:46:06;;;;;;;3.17;2.60;;;;;;;6.43;100.00;101579.78;4993095;28;20027;-70
2022/03/17 10:48:31;;;;;;;7.05;4.22;;;;;;;6.53;100.00;101557.22;4992673;28;20112;-69
2022/03/17 10:50:57;;;;;;;4.18;2.15;;;;;;;6.12;100.00;101603.69;4993059;28;20117;-69
2022/03/17 10:53:31;;;;;;;4.18;2.83;;;;;;;6.35;100.00;101582.19;4993157;28;20109;-69
2022/03/17 10:56:16;;;;;;;2.83;2.10;;;;;;;6.14;100.00;101599.53;4993276;28;20381;-69
2022/03/17 10:58:45;;;;;;;5.38;2.83;;;;;;;6.21;100.00;101591.25;4992729;28;20018;-69
2022/03/17 11:01:11;;;;;;;3.03;2.53;;;;;;;6.16;100.00;101577.69;4992843;28;20027;-68
2022/03/17 11:03:36;;;;;;;7.20;3.38;;;;;;;6.49;100.00;101593.38;5022595;28;20060;-69
2022/03/17 11:06:06;;;;;;;9.30;5.93;;;;;;;6.47;100.00;101582.38;5014350;28;20067;-69
2022/03/17 11:08:32;;;;;;;4.20;2.80;;;;;;;6.08;100.00;101591.88;5031991;28;20087;-69
2022/03/17 11:10:58;;;;;;;4.18;2.55;;;;;;;6.06;100.00;101609.50;5032256;28;20032;-70
2022/03/17 11:13:24;;;;;;;4.72;3.15;;;;;;;6.21;100.00;101591.25;5013510;28;20537;-69
2022/03/17 11:16:05;;;;;;;3.95;3.10;;;;;;;5.84;100.00;101556.97;5032034;28;20041;-69
2022/03/17 11:18:34;;;;;;;4.75;3.75;;;;;;;6.07;100.00;101565.78;5032189;28;20115;-68
2022/03/17 11:21:13;;;;;;;5.80;4.20;;;;;;;6.25;100.00;101604.75;5032406;28;20121;-69
2022/03/17 11:23:59;;;;;;;7.28;4.85;;;;;;;6.07;100.00;101580.94;5031828;28;20037;-68
2022/03/17 11:26:40;;;;;;;3.95;3.08;;;;;;;5.80;100.00;101603.13;5031770;28;20035;-70
2022/03/17 11:29:21;;;;;;;7.80;4.53;;;;;;;6.04;100.00;101603.59;5031902;28;20479;-69